This is the latest recevied weather packets stored in our database for station/object OK2ILA-13. If no packets are shown the sender has not sent any weather packets the latest 10 day(s).
| Time | Temp. | Humidity | Pressure | Rain* | Wind** | Luminosity | Snow |
|---|---|---|---|---|---|---|---|
| 1788470365 | 15.56° C | 65% | 1019.1 hPa | - | - | - | - |
| 1788469765 | 15° C | 66% | 1019.3 hPa | - | - | - | - |
| 1788469164 | 15° C | 66% | 1019.2 hPa | - | - | - | - |
| 1788468564 | 14.44° C | 66% | 1019.3 hPa | - | - | - | - |
| 1788467964 | 14.44° C | 66% | 1019.2 hPa | - | - | - | - |
| 1788467364 | 15° C | 66% | 1019.2 hPa | - | - | - | - |
| 1788466763 | 15° C | 65% | 1019.2 hPa | - | - | - | - |
| 1788466163 | 15° C | 65% | 1019.3 hPa | - | - | - | - |
| 1788465563 | 14.44° C | 65% | 1019.2 hPa | - | - | - | - |
| 1788463764 | 15° C | 62% | 1019.4 hPa | - | - | - | - |
| 1788446395 | 21.11° C | 41% | 1019.4 hPa | - | - | - | - |
| 1788445195 | 21.11° C | 44% | 1019.5 hPa | - | - | - | - |
| 1788444595 | 21.11° C | 43% | 1019.5 hPa | - | - | - | - |
| 1788443995 | 20.56° C | 44% | 1019.5 hPa | - | - | - | - |
| 1788442194 | 21.67° C | 43% | 1019.5 hPa | - | - | - | - |
| 1788441595 | 21.67° C | 42% | 1019.6 hPa | - | - | - | - |
| 1788440995 | 22.22° C | 40% | 1019.7 hPa | - | - | - | - |
| 1788439795 | 21.67° C | 40% | 1019.6 hPa | - | - | - | - |
| 1788439195 | 22.22° C | 41% | 1019.4 hPa | - | - | - | - |
| 1788438595 | 22.22° C | 40% | 1019.6 hPa | - | - | - | - |
| 1788436796 | 22.22° C | 43% | 1020 hPa | - | - | - | - |
| 1788435595 | 20.56° C | 45% | 1020.1 hPa | - | - | - | - |
| 1788434395 | 21.11° C | 42% | 1020.1 hPa | - | - | - | - |
| 1788433792 | 22.22° C | 41% | 1020 hPa | - | - | - | - |
| 1788433192 | 22.22° C | 37% | 1020 hPa | - | - | - | - |
* Rain since midnight (hover to see other rain measurements)
** Current wind speed in m/s (hover to see current wind gust speed)